»·PEaware :: AAL822 KPHX-KSAN

AAL822 :: KPHX-KSAN

FLIGHT INFORMATION

Flight Status: Arrived
Operator:
American Airlines
More flights by this operator :: More flights under this callsign
Pilot: Max W. (2591)
Aircraft: AIRBUS A320
(A320)
More flights by this aircraft type
Origin: KPHX Phoenix Sky Harbor Intl
United States
Destination: KSAN San Diego Intl-Lindbergh
United States
More flights between these airports :: More routes between these airports
Route: FYRBD1 MOHAK J2 HOGGZ LUCKI1
File this flight plan on PilotEdge
Remarks:
Altitude:
(Current/Filed)
28,000ft
Speed:
(Current/Filed)
450kts
Departed: 18-Sep-18 07:14 PM
Arrived: 18-Sep-18 08:03 PM
Distance/Time
Traveled:
264nm/0:48
Distance/Time
To Go:
Arrived

Flight Plot

Page will automatically refresh every two minutes.

Flight plan parsing failed; only flown route is shown


Map Options




Map Legend


Flown Route
Filed Route
Departure Airport
Arrival Airport
Navaid (VOR, NDB)
Fix

Horizontal Profiles

Position Reports

Time Latitude Longitude Heading Altitude Ground
Speed
18-Sep-18 18:33 33.437855 -111.999803 89 1118ft 0kts
18-Sep-18 18:34 33.437855 -111.999803 89 1118ft 0kts
18-Sep-18 18:35 33.437855 -111.999803 89 1118ft 0kts
18-Sep-18 18:36 33.437855 -111.999803 89 1118ft 0kts
18-Sep-18 18:37 33.437855 -111.999803 89 1118ft 0kts
18-Sep-18 18:38 33.437855 -111.999803 89 1118ft 0kts
18-Sep-18 18:39 33.437855 -111.999803 89 1118ft 0kts
18-Sep-18 18:40 33.437855 -111.999803 89 1118ft 0kts
18-Sep-18 18:41 33.437855 -111.999803 89 1118ft 0kts
18-Sep-18 18:42 33.437855 -111.999803 89 1118ft 0kts
18-Sep-18 18:43 33.437855 -111.999803 89 1118ft 0kts
18-Sep-18 18:44 33.437855 -111.999803 89 1118ft 0kts
18-Sep-18 18:45 33.437855 -111.999803 89 1118ft 0kts
18-Sep-18 18:46 33.437855 -111.999803 89 1118ft 0kts
18-Sep-18 18:47 33.437855 -111.999803 89 1118ft 0kts
18-Sep-18 18:48 33.437855 -111.999803 89 1118ft 0kts
18-Sep-18 18:49 33.437855 -111.999803 89 1118ft 0kts
18-Sep-18 18:50 33.437855 -111.999803 89 1118ft 0kts
18-Sep-18 18:51 33.437855 -111.999803 89 1118ft 0kts
18-Sep-18 18:52 33.437855 -111.999803 89 1118ft 0kts
18-Sep-18 18:53 33.437855 -111.999803 89 1118ft 0kts
18-Sep-18 18:54 33.437855 -111.999803 89 1118ft 0kts
18-Sep-18 18:55 33.437855 -111.999803 89 1118ft 0kts
18-Sep-18 18:56 33.437855 -111.999803 89 1118ft 0kts
18-Sep-18 18:57 33.437855 -111.999803 89 1118ft 0kts
18-Sep-18 18:58 33.437855 -111.999961 89 1118ft 2kts
18-Sep-18 18:59 33.437655 -112.000541 2 1118ft 1kts
18-Sep-18 19:00 33.437592 -112.000539 1 1118ft 0kts
18-Sep-18 19:01 33.437592 -112.000539 1 1118ft 0kts
18-Sep-18 19:02 33.438140 -112.000527 0 1118ft 3kts
18-Sep-18 19:03 33.438472 -112.000491 6 1118ft 0kts
18-Sep-18 19:04 33.438578 -112.000476 6 1118ft 0kts
18-Sep-18 19:05 33.438684 -112.000461 7 1118ft 0kts
18-Sep-18 19:06 33.438749 -112.000451 7 1118ft 0kts
18-Sep-18 19:07 33.438749 -112.000451 7 1118ft 0kts
18-Sep-18 19:08 33.438749 -112.000451 7 1118ft 0kts
18-Sep-18 19:09 33.438749 -112.000451 7 1118ft 0kts
18-Sep-18 19:10 33.438946 -112.000457 344 1118ft 9kts
18-Sep-18 19:11 33.439746 -111.995759 90 1118ft 16kts
18-Sep-18 19:12 33.439733 -111.993020 89 1118ft 0kts
18-Sep-18 19:13 33.439772 -111.992430 53 1118ft 0kts
18-Sep-18 19:14 33.440830 -111.992952 269 1118ft 0kts
18-Sep-18 19:15 33.440830 -111.992951 269 1118ft 0kts
18-Sep-18 19:16 33.440822 -112.006299 268 1128ft 153kts
18-Sep-18 19:17 33.431407 -112.062258 249 4031ft 188kts
18-Sep-18 19:18 33.410284 -112.131984 250 5929ft 262kts
18-Sep-18 19:19 33.363909 -112.199974 219 8894ft 281kts
18-Sep-18 19:20 33.305356 -112.266659 222 10979ft 321kts
18-Sep-18 19:21 33.238009 -112.348076 228 12651ft 360kts
18-Sep-18 19:22 33.166006 -112.433015 226 14940ft 370kts
18-Sep-18 19:23 33.091547 -112.518728 226 16967ft 380kts
18-Sep-18 19:24 33.015019 -112.606748 226 18806ft 389kts
18-Sep-18 19:25 32.952422 -112.706308 258 20403ft 391kts
18-Sep-18 19:26 32.935235 -112.832602 261 21901ft 399kts
18-Sep-18 19:27 32.917448 -112.963399 260 23283ft 407kts
18-Sep-18 19:28 32.899555 -113.094182 260 24525ft 414kts
18-Sep-18 19:29 32.881219 -113.227199 260 25669ft 420kts
18-Sep-18 19:30 32.862063 -113.365031 260 26738ft 427kts
18-Sep-18 19:31 32.842443 -113.505012 260 27846ft 430kts
18-Sep-18 19:32 32.822840 -113.643612 260 27957ft 427kts
18-Sep-18 19:33 32.803665 -113.778245 260 27958ft 428kts
18-Sep-18 19:34 32.783739 -113.916970 260 27956ft 428kts
18-Sep-18 19:35 32.774962 -114.056942 269 27958ft 428kts
18-Sep-18 19:36 32.779891 -114.197888 271 27956ft 428kts
18-Sep-18 19:37 32.785512 -114.338742 272 27954ft 428kts
18-Sep-18 19:38 32.812097 -114.475618 286 27965ft 432kts
18-Sep-18 19:39 32.848881 -114.609492 286 27959ft 431kts
18-Sep-18 19:40 32.867637 -114.742157 267 27965ft 430kts
18-Sep-18 19:41 32.862873 -114.879946 265 27960ft 428kts
18-Sep-18 19:42 32.858846 -115.020956 267 27944ft 428kts
18-Sep-18 19:43 32.854870 -115.161545 266 27947ft 428kts
18-Sep-18 19:44 32.850501 -115.299290 266 27487ft 413kts
18-Sep-18 19:45 32.846146 -115.432018 266 26159ft 406kts
18-Sep-18 19:46 32.832232 -115.560438 258 24267ft 392kts
18-Sep-18 19:47 32.813388 -115.675624 258 22548ft 383kts
18-Sep-18 19:48 32.794423 -115.790789 258 20805ft 374kts
18-Sep-18 19:49 32.780369 -115.910207 264 18987ft 365kts
18-Sep-18 19:50 32.771535 -116.027935 264 17226ft 356kts
18-Sep-18 19:51 32.762823 -116.142657 264 15663ft 339kts
18-Sep-18 19:52 32.754605 -116.249223 265 14339ft 317kts
18-Sep-18 19:53 32.746657 -116.352020 265 12623ft 310kts
18-Sep-18 19:54 32.738851 -116.452651 266 10951ft 304kts
18-Sep-18 19:55 32.731000 -116.547137 264 9659ft 277kts
18-Sep-18 19:56 32.722242 -116.636717 263 8335ft 273kts
18-Sep-18 19:57 32.715030 -116.721914 264 7118ft 269kts
18-Sep-18 19:58 32.708409 -116.806439 264 6024ft 252kts
18-Sep-18 19:59 32.688157 -116.879821 249 5202ft 229kts
18-Sep-18 20:00 32.673860 -116.945192 284 4506ft 211kts
18-Sep-18 20:01 32.689582 -117.008721 284 3340ft 199kts
18-Sep-18 20:02 32.704838 -117.071146 284 2222ft 182kts
18-Sep-18 20:03 32.717623 -117.123740 284 1207ft 152kts
18-Sep-18 20:04 32.728615 -117.169284 284 298ft 140kts
18-Sep-18 20:05 32.733129 -117.192072 266 22ft 0kts

Navigation Log

Ident Type
Flight plan parsing failed, navigation log unavailable